sensor_id;sensor_type;location;lat;lon;timestamp;pressure;altitude;pressure_sealevel;temperature;humidity
42385;BME280;28042;43.986;22.860;2023-04-21T00:00:51;100726.91;;;10.61;100.00
42385;BME280;28042;43.986;22.860;2023-04-21T00:03:19;100737.28;;;10.72;100.00
42385;BME280;28042;43.986;22.860;2023-04-21T00:05:46;100735.59;;;10.71;100.00
42385;BME280;28042;43.986;22.860;2023-04-21T00:08:13;100661.09;;;10.21;100.00
42385;BME280;28042;43.986;22.860;2023-04-21T00:10:38;100734.41;;;10.52;100.00
42385;BME280;28042;43.986;22.860;2023-04-21T00:13:04;100688.56;;;10.19;100.00
42385;BME280;28042;43.986;22.860;2023-04-21T00:15:29;100679.78;;;10.03;100.00
42385;BME280;28042;43.986;22.860;2023-04-21T00:17:55;100683.03;;;9.91;100.00
42385;BME280;28042;43.986;22.860;2023-04-21T00:20:22;100712.38;;;10.11;100.00
42385;BME280;28042;43.986;22.860;2023-04-21T00:22:48;100718.22;;;10.08;100.00
42385;BME280;28042;43.986;22.860;2023-04-21T00:25:14;100677.63;;;9.77;100.00
42385;BME280;28042;43.986;22.860;2023-04-21T00:27:40;100730.53;;;10.04;100.00
42385;BME280;28042;43.986;22.860;2023-04-21T00:30:06;100693.16;;;9.76;100.00
42385;BME280;28042;43.986;22.860;2023-04-21T00:32:32;100734.56;;;10.08;100.00
42385;BME280;28042;43.986;22.860;2023-04-21T00:34:57;100675.88;;;9.69;100.00
42385;BME280;28042;43.986;22.860;2023-04-21T00:37:23;100684.56;;;9.79;100.00
42385;BME280;28042;43.986;22.860;2023-04-21T00:39:48;100743.75;;;10.07;100.00
42385;BME280;28042;43.986;22.860;2023-04-21T00:42:15;100730.72;;;10.02;100.00
42385;BME280;28042;43.986;22.860;2023-04-21T00:44:41;100720.66;;;10.03;100.00
42385;BME280;28042;43.986;22.860;2023-04-21T00:47:06;100685.38;;;9.73;100.00
42385;BME280;28042;43.986;22.860;2023-04-21T00:49:32;100742.69;;;10.01;100.00
42385;BME280;28042;43.986;22.860;2023-04-21T00:51:58;100697.38;;;9.64;100.00
42385;BME280;28042;43.986;22.860;2023-04-21T00:54:23;100734.13;;;9.89;100.00
42385;BME280;28042;43.986;22.860;2023-04-21T00:56:52;100671.81;;;9.44;100.00
42385;BME280;28042;43.986;22.860;2023-04-21T00:59:19;100727.06;;;9.74;100.00
42385;BME280;28042;43.986;22.860;2023-04-21T01:01:45;100728.94;;;9.73;100.00
42385;BME280;28042;43.986;22.860;2023-04-21T01:04:11;100737.50;;;9.70;100.00
42385;BME280;28042;43.986;22.860;2023-04-21T01:06:36;100679.44;;;9.33;100.00
42385;BME280;28042;43.986;22.860;2023-04-21T01:09:02;100744.16;;;9.68;100.00
42385;BME280;28042;43.986;22.860;2023-04-21T01:11:30;100669.41;;;9.19;100.00
42385;BME280;28042;43.986;22.860;2023-04-21T01:13:57;100723.00;;;9.48;100.00
42385;BME280;28042;43.986;22.860;2023-04-21T01:16:43;100738.53;;;9.54;100.00
42385;BME280;28042;43.986;22.860;2023-04-21T01:19:09;100675.63;;;9.13;100.00
42385;BME280;28042;43.986;22.860;2023-04-21T01:21:38;100721.09;;;9.49;100.00
42385;BME280;28042;43.986;22.860;2023-04-21T01:24:07;100667.91;;;9.17;100.00
42385;BME280;28042;43.986;22.860;2023-04-21T01:26:32;100709.53;;;9.47;100.00
42385;BME280;28042;43.986;22.860;2023-04-21T01:28:58;100718.00;;;9.52;100.00
42385;BME280;28042;43.986;22.860;2023-04-21T01:31:23;100659.84;;;9.23;100.00
42385;BME280;28042;43.986;22.860;2023-04-21T01:33:49;100692.66;;;9.37;100.00
42385;BME280;28042;43.986;22.860;2023-04-21T01:36:14;100731.06;;;9.56;100.00
42385;BME280;28042;43.986;22.860;2023-04-21T01:38:41;100665.19;;;9.17;100.00
42385;BME280;28042;43.986;22.860;2023-04-21T01:41:07;100725.97;;;9.53;100.00
42385;BME280;28042;43.986;22.860;2023-04-21T01:43:33;100677.88;;;9.24;100.00
42385;BME280;28042;43.986;22.860;2023-04-21T01:45:59;100680.22;;;9.13;100.00
42385;BME280;28042;43.986;22.860;2023-04-21T01:48:24;100733.88;;;9.33;100.00
42385;BME280;28042;43.986;22.860;2023-04-21T01:50:50;100720.75;;;9.22;100.00
42385;BME280;28042;43.986;22.860;2023-04-21T01:53:15;100715.22;;;9.16;100.00
42385;BME280;28042;43.986;22.860;2023-04-21T01:55:41;100682.75;;;8.85;100.00
42385;BME280;28042;43.986;22.860;2023-04-21T01:58:06;100687.72;;;8.81;100.00
42385;BME280;28042;43.986;22.860;2023-04-21T02:00:32;100682.09;;;8.83;100.00
42385;BME280;28042;43.986;22.860;2023-04-21T02:02:57;100694.69;;;8.98;100.00
42385;BME280;28042;43.986;22.860;2023-04-21T02:05:23;100725.53;;;9.20;100.00
42385;BME280;28042;43.986;22.860;2023-04-21T02:07:48;100733.88;;;9.19;100.00
42385;BME280;28042;43.986;22.860;2023-04-21T02:10:14;100736.41;;;9.20;100.00
42385;BME280;28042;43.986;22.860;2023-04-21T02:12:39;100667.19;;;8.78;100.00
42385;BME280;28042;43.986;22.860;2023-04-21T02:15:05;100721.69;;;9.00;100.00
42385;BME280;28042;43.986;22.860;2023-04-21T02:17:31;100729.28;;;8.90;100.00
42385;BME280;28042;43.986;22.860;2023-04-21T02:19:57;100669.88;;;8.49;100.00
42385;BME280;28042;43.986;22.860;2023-04-21T02:22:22;100722.78;;;8.76;100.00
42385;BME280;28042;43.986;22.860;2023-04-21T02:24:49;100699.69;;;8.57;100.00
42385;BME280;28042;43.986;22.860;2023-04-21T02:27:14;100710.97;;;8.69;100.00
42385;BME280;28042;43.986;22.860;2023-04-21T02:29:40;100662.66;;;8.56;100.00
42385;BME280;28042;43.986;22.860;2023-04-21T02:32:05;100694.41;;;8.78;100.00
42385;BME280;28042;43.986;22.860;2023-04-21T02:34:32;100668.31;;;8.69;100.00
42385;BME280;28042;43.986;22.860;2023-04-21T02:36:57;100673.94;;;8.83;100.00
42385;BME280;28042;43.986;22.860;2023-04-21T02:39:24;100673.19;;;8.89;100.00
42385;BME280;28042;43.986;22.860;2023-04-21T02:41:49;100671.50;;;8.88;100.00
42385;BME280;28042;43.986;22.860;2023-04-21T02:44:15;100704.88;;;9.11;100.00
42385;BME280;28042;43.986;22.860;2023-04-21T02:46:41;100727.34;;;9.13;100.00
42385;BME280;28042;43.986;22.860;2023-04-21T02:49:07;100692.50;;;8.94;100.00
42385;BME280;28042;43.986;22.860;2023-04-21T02:51:32;100725.47;;;9.14;100.00
42385;BME280;28042;43.986;22.860;2023-04-21T02:53:58;100653.31;;;8.73;100.00
42385;BME280;28042;43.986;22.860;2023-04-21T02:56:23;100716.34;;;9.21;100.00
42385;BME280;28042;43.986;22.860;2023-04-21T02:58:48;100675.19;;;8.95;100.00
42385;BME280;28042;43.986;22.860;2023-04-21T03:01:14;100679.94;;;8.93;100.00
42385;BME280;28042;43.986;22.860;2023-04-21T03:03:40;100661.06;;;8.76;100.00
42385;BME280;28042;43.986;22.860;2023-04-21T03:06:06;100670.56;;;8.81;100.00
42385;BME280;28042;43.986;22.860;2023-04-21T03:08:31;100663.22;;;8.66;100.00
42385;BME280;28042;43.986;22.860;2023-04-21T03:10:57;100729.84;;;9.00;100.00
42385;BME280;28042;43.986;22.860;2023-04-21T03:13:23;100665.31;;;8.64;100.00
42385;BME280;28042;43.986;22.860;2023-04-21T03:15:49;100727.59;;;8.89;100.00
42385;BME280;28042;43.986;22.860;2023-04-21T03:18:15;100723.94;;;8.96;100.00
42385;BME280;28042;43.986;22.860;2023-04-21T03:20:40;100669.78;;;8.57;100.00
42385;BME280;28042;43.986;22.860;2023-04-21T03:23:06;100720.81;;;8.85;100.00
42385;BME280;28042;43.986;22.860;2023-04-21T03:25:31;100710.03;;;8.76;100.00
42385;BME280;28042;43.986;22.860;2023-04-21T03:27:57;100721.50;;;8.87;100.00
42385;BME280;28042;43.986;22.860;2023-04-21T03:30:23;100741.97;;;8.97;100.00
42385;BME280;28042;43.986;22.860;2023-04-21T03:32:50;100732.13;;;8.96;100.00
42385;BME280;28042;43.986;22.860;2023-04-21T03:35:16;100731.19;;;9.04;100.00
42385;BME280;28042;43.986;22.860;2023-04-21T03:37:42;100731.53;;;9.01;100.00
42385;BME280;28042;43.986;22.860;2023-04-21T03:40:07;100728.91;;;9.07;100.00
42385;BME280;28042;43.986;22.860;2023-04-21T03:42:36;100722.63;;;9.07;100.00
42385;BME280;28042;43.986;22.860;2023-04-21T03:45:06;100731.34;;;9.17;100.00
42385;BME280;28042;43.986;22.860;2023-04-21T03:47:32;100698.63;;;8.96;100.00
42385;BME280;28042;43.986;22.860;2023-04-21T03:49:57;100731.34;;;9.17;100.00
42385;BME280;28042;43.986;22.860;2023-04-21T03:52:23;100731.63;;;9.07;100.00
42385;BME280;28042;43.986;22.860;2023-04-21T03:54:49;100740.16;;;9.19;100.00
42385;BME280;28042;43.986;22.860;2023-04-21T03:57:15;100715.50;;;9.06;100.00
42385;BME280;28042;43.986;22.860;2023-04-21T03:59:41;100737.75;;;9.24;100.00
42385;BME280;28042;43.986;22.860;2023-04-21T04:02:06;100691.03;;;9.06;100.00
42385;BME280;28042;43.986;22.860;2023-04-21T04:04:32;100743.34;;;9.38;100.00
42385;BME280;28042;43.986;22.860;2023-04-21T04:06:58;100683.91;;;9.05;100.00
42385;BME280;28042;43.986;22.860;2023-04-21T04:09:23;100716.50;;;9.34;100.00
42385;BME280;28042;43.986;22.860;2023-04-21T04:11:49;100691.66;;;9.23;100.00
42385;BME280;28042;43.986;22.860;2023-04-21T04:14:15;100747.31;;;9.50;100.00
42385;BME280;28042;43.986;22.860;2023-04-21T04:16:40;100693.53;;;9.22;100.00
42385;BME280;28042;43.986;22.860;2023-04-21T04:19:06;100750.97;;;9.57;100.00
42385;BME280;28042;43.986;22.860;2023-04-21T04:21:31;100749.38;;;9.48;100.00
42385;BME280;28042;43.986;22.860;2023-04-21T04:23:57;100737.34;;;9.57;100.00
42385;BME280;28042;43.986;22.860;2023-04-21T04:26:24;100759.91;;;9.87;100.00
42385;BME280;28042;43.986;22.860;2023-04-21T04:28:52;100686.53;;;10.07;100.00
42385;BME280;28042;43.986;22.860;2023-04-21T04:31:23;100686.88;;;10.68;100.00
42385;BME280;28042;43.986;22.860;2023-04-21T04:33:50;100699.38;;;11.18;100.00
42385;BME280;28042;43.986;22.860;2023-04-21T04:36:15;100744.28;;;11.92;100.00
42385;BME280;28042;43.986;22.860;2023-04-21T04:38:41;100746.66;;;12.28;100.00
42385;BME280;28042;43.986;22.860;2023-04-21T04:41:06;100708.41;;;12.54;97.78
42385;BME280;28042;43.986;22.860;2023-04-21T04:43:33;100705.63;;;12.67;94.57
42385;BME280;28042;43.986;22.860;2023-04-21T04:46:01;100740.56;;;13.25;91.94
42385;BME280;28042;43.986;22.860;2023-04-21T04:48:27;100748.69;;;13.58;89.55
42385;BME280;28042;43.986;22.860;2023-04-21T04:50:52;100760.06;;;14.06;86.69
42385;BME280;28042;43.986;22.860;2023-04-21T04:53:18;100741.00;;;14.18;83.54
42385;BME280;28042;43.986;22.860;2023-04-21T04:55:43;100702.59;;;14.18;81.80
42385;BME280;28042;43.986;22.860;2023-04-21T04:58:08;100716.94;;;14.52;80.57
42385;BME280;28042;43.986;22.860;2023-04-21T05:00:34;100737.06;;;14.95;77.86
42385;BME280;28042;43.986;22.860;2023-04-21T05:03:01;100717.38;;;14.98;77.05
42385;BME280;28042;43.986;22.860;2023-04-21T05:05:26;100714.75;;;15.47;74.31
42385;BME280;28042;43.986;22.860;2023-04-21T05:07:52;100770.41;;;15.79;74.32
42385;BME280;28042;43.986;22.860;2023-04-21T05:10:17;100766.59;;;15.80;73.33
42385;BME280;28042;43.986;22.860;2023-04-21T05:12:43;100714.56;;;15.78;71.75
42385;BME280;28042;43.986;22.860;2023-04-21T05:15:08;100763.84;;;16.28;70.61
42385;BME280;28042;43.986;22.860;2023-04-21T05:17:35;100730.50;;;15.88;70.88
42385;BME280;28042;43.986;22.860;2023-04-21T05:20:00;100724.88;;;15.83;71.41
42385;BME280;28042;43.986;22.860;2023-04-21T05:22:26;100727.03;;;15.63;72.51
42385;BME280;28042;43.986;22.860;2023-04-21T05:24:52;100713.72;;;15.78;72.16
42385;BME280;28042;43.986;22.860;2023-04-21T05:27:17;100767.19;;;16.00;72.23
42385;BME280;28042;43.986;22.860;2023-04-21T05:29:42;100756.28;;;15.94;72.77
42385;BME280;28042;43.986;22.860;2023-04-21T05:32:08;100723.28;;;16.05;71.41
42385;BME280;28042;43.986;22.860;2023-04-21T05:34:36;100707.19;;;16.21;70.06
42385;BME280;28042;43.986;22.860;2023-04-21T05:37:02;100749.06;;;16.53;69.29
42385;BME280;28042;43.986;22.860;2023-04-21T05:39:27;100765.09;;;16.44;70.70
42385;BME280;28042;43.986;22.860;2023-04-21T05:41:53;100765.56;;;16.83;69.62
42385;BME280;28042;43.986;22.860;2023-04-21T05:44:18;100759.56;;;16.74;70.01
42385;BME280;28042;43.986;22.860;2023-04-21T05:46:44;100758.28;;;16.58;68.91
42385;BME280;28042;43.986;22.860;2023-04-21T05:49:09;100756.75;;;16.62;69.29
42385;BME280;28042;43.986;22.860;2023-04-21T05:51:35;100715.81;;;16.24;70.27
42385;BME280;28042;43.986;22.860;2023-04-21T05:54:00;100750.25;;;16.87;69.62
42385;BME280;28042;43.986;22.860;2023-04-21T05:56:26;100712.72;;;16.74;66.82
42385;BME280;28042;43.986;22.860;2023-04-21T05:58:51;100709.94;;;16.62;67.74
42385;BME280;28042;43.986;22.860;2023-04-21T06:01:16;100715.03;;;16.77;68.08
42385;BME280;28042;43.986;22.860;2023-04-21T06:03:42;100768.00;;;17.38;66.55
42385;BME280;28042;43.986;22.860;2023-04-21T06:06:08;100761.16;;;17.17;66.42
42385;BME280;28042;43.986;22.860;2023-04-21T06:08:34;100762.19;;;17.51;65.83
42385;BME280;28042;43.986;22.860;2023-04-21T06:11:00;100764.47;;;17.66;65.45
42385;BME280;28042;43.986;22.860;2023-04-21T06:13:25;100717.84;;;17.41;64.69
42385;BME280;28042;43.986;22.860;2023-04-21T06:15:54;100766.75;;;17.57;64.46
42385;BME280;28042;43.986;22.860;2023-04-21T06:18:20;100756.25;;;17.31;66.38
42385;BME280;28042;43.986;22.860;2023-04-21T06:20:52;100764.75;;;16.94;66.50
42385;BME280;28042;43.986;22.860;2023-04-21T06:23:19;100766.88;;;16.80;67.07
42385;BME280;28042;43.986;22.860;2023-04-21T06:25:45;100721.44;;;16.18;66.91
42385;BME280;28042;43.986;22.860;2023-04-21T06:28:11;100767.91;;;16.26;67.72
42385;BME280;28042;43.986;22.860;2023-04-21T06:30:36;100773.97;;;15.98;68.24
42385;BME280;28042;43.986;22.860;2023-04-21T06:33:02;100756.88;;;15.96;69.18
42385;BME280;28042;43.986;22.860;2023-04-21T06:35:29;100758.94;;;16.00;69.04
42385;BME280;28042;43.986;22.860;2023-04-21T06:37:55;100767.47;;;16.10;68.22
42385;BME280;28042;43.986;22.860;2023-04-21T06:40:20;100711.56;;;15.80;68.69
42385;BME280;28042;43.986;22.860;2023-04-21T06:42:46;100765.31;;;16.13;67.92
42385;BME280;28042;43.986;22.860;2023-04-21T06:45:11;100721.19;;;15.89;67.12
42385;BME280;28042;43.986;22.860;2023-04-21T06:47:37;100715.91;;;15.88;68.10
42385;BME280;28042;43.986;22.860;2023-04-21T06:50:03;100718.69;;;15.88;68.38
42385;BME280;28042;43.986;22.860;2023-04-21T06:52:28;100771.38;;;16.33;68.11
42385;BME280;28042;43.986;22.860;2023-04-21T06:54:53;100701.00;;;15.95;66.76
42385;BME280;28042;43.986;22.860;2023-04-21T06:57:19;100720.22;;;16.14;66.24
42385;BME280;28042;43.986;22.860;2023-04-21T06:59:45;100768.91;;;16.43;65.03
42385;BME280;28042;43.986;22.860;2023-04-21T07:02:10;100708.97;;;16.15;68.41
42385;BME280;28042;43.986;22.860;2023-04-21T07:04:35;100739.94;;;16.40;66.50
42385;BME280;28042;43.986;22.860;2023-04-21T07:07:02;100761.13;;;16.70;66.30
42385;BME280;28042;43.986;22.860;2023-04-21T07:09:27;100773.22;;;16.81;65.73
42385;BME280;28042;43.986;22.860;2023-04-21T07:11:53;100719.72;;;16.58;65.78
42385;BME280;28042;43.986;22.860;2023-04-21T07:14:19;100724.34;;;16.76;65.53
42385;BME280;28042;43.986;22.860;2023-04-21T07:16:45;100772.28;;;17.10;65.23
42385;BME280;28042;43.986;22.860;2023-04-21T07:19:11;100768.09;;;16.96;64.38
42385;BME280;28042;43.986;22.860;2023-04-21T07:21:36;100767.50;;;17.17;63.64
42385;BME280;28042;43.986;22.860;2023-04-21T07:24:02;100768.44;;;17.35;64.59
42385;BME280;28042;43.986;22.860;2023-04-21T07:26:28;100768.34;;;17.41;62.73
42385;BME280;28042;43.986;22.860;2023-04-21T07:28:54;100768.19;;;17.60;61.70
42385;BME280;28042;43.986;22.860;2023-04-21T07:31:22;100774.66;;;17.65;61.96
42385;BME280;28042;43.986;22.860;2023-04-21T07:33:48;100736.88;;;17.54;60.63
42385;BME280;28042;43.986;22.860;2023-04-21T07:36:14;100776.91;;;17.80;61.11
42385;BME280;28042;43.986;22.860;2023-04-21T07:38:39;100760.22;;;17.87;61.30
42385;BME280;28042;43.986;22.860;2023-04-21T07:41:07;100783.00;;;17.94;59.71
42385;BME280;28042;43.986;22.860;2023-04-21T07:43:33;100792.63;;;17.79;59.05
42385;BME280;28042;43.986;22.860;2023-04-21T07:45:59;100732.66;;;17.63;58.99
42385;BME280;28042;43.986;22.860;2023-04-21T07:48:24;100778.00;;;17.91;57.82
42385;BME280;28042;43.986;22.860;2023-04-21T07:50:50;100776.53;;;18.00;58.12
42385;BME280;28042;43.986;22.860;2023-04-21T07:53:15;100744.50;;;17.87;58.60
42385;BME280;28042;43.986;22.860;2023-04-21T07:55:40;100779.69;;;18.20;58.41
42385;BME280;28042;43.986;22.860;2023-04-21T07:58:06;100779.34;;;18.45;57.78
42385;BME280;28042;43.986;22.860;2023-04-21T08:00:31;100741.91;;;18.09;57.57
42385;BME280;28042;43.986;22.860;2023-04-21T08:02:57;100736.03;;;18.05;57.97
42385;BME280;28042;43.986;22.860;2023-04-21T08:05:22;100794.69;;;18.24;58.22
42385;BME280;28042;43.986;22.860;2023-04-21T08:07:48;100788.22;;;18.19;57.76
42385;BME280;28042;43.986;22.860;2023-04-21T08:10:13;100740.72;;;18.05;57.29
42385;BME280;28042;43.986;22.860;2023-04-21T08:12:39;100788.16;;;18.30;58.38
42385;BME280;28042;43.986;22.860;2023-04-21T08:15:05;100729.94;;;18.03;59.13
42385;BME280;28042;43.986;22.860;2023-04-21T08:17:32;100794.31;;;18.21;59.41
42385;BME280;28042;43.986;22.860;2023-04-21T08:19:58;100777.06;;;18.59;59.46
42385;BME280;28042;43.986;22.860;2023-04-21T08:22:24;100766.03;;;18.59;58.18
42385;BME280;28042;43.986;22.860;2023-04-21T08:24:49;100721.56;;;18.44;58.07
42385;BME280;28042;43.986;22.860;2023-04-21T08:27:15;100767.34;;;18.68;57.42
42385;BME280;28042;43.986;22.860;2023-04-21T08:29:40;100742.72;;;18.67;58.07
42385;BME280;28042;43.986;22.860;2023-04-21T08:32:06;100734.28;;;18.45;58.39
42385;BME280;28042;43.986;22.860;2023-04-21T08:34:31;100773.34;;;18.65;58.51
42385;BME280;28042;43.986;22.860;2023-04-21T08:36:57;100784.41;;;18.08;59.42
42385;BME280;28042;43.986;22.860;2023-04-21T08:39:22;100761.63;;;18.01;60.11
42385;BME280;28042;43.986;22.860;2023-04-21T08:41:48;100772.09;;;18.27;60.59
42385;BME280;28042;43.986;22.860;2023-04-21T08:44:15;100717.75;;;17.88;60.39
42385;BME280;28042;43.986;22.860;2023-04-21T08:46:42;100731.84;;;18.03;60.44
42385;BME280;28042;43.986;22.860;2023-04-21T08:49:08;100774.16;;;18.20;60.58
42385;BME280;28042;43.986;22.860;2023-04-21T08:51:34;100760.25;;;18.44;57.77
42385;BME280;28042;43.986;22.860;2023-04-21T08:54:00;100767.13;;;18.58;57.66
42385;BME280;28042;43.986;22.860;2023-04-21T08:56:26;100721.28;;;18.74;58.07
42385;BME280;28042;43.986;22.860;2023-04-21T08:58:52;100762.00;;;18.95;57.00
42385;BME280;28042;43.986;22.860;2023-04-21T09:01:18;100755.28;;;19.08;55.89
42385;BME280;28042;43.986;22.860;2023-04-21T09:03:43;100756.94;;;19.09;54.59
42385;BME280;28042;43.986;22.860;2023-04-21T09:06:09;100760.63;;;19.53;54.08
42385;BME280;28042;43.986;22.860;2023-04-21T09:08:38;100751.38;;;19.42;53.63
42385;BME280;28042;43.986;22.860;2023-04-21T09:11:06;100768.53;;;18.89;53.89
42385;BME280;28042;43.986;22.860;2023-04-21T09:13:34;100767.03;;;18.53;54.03
42385;BME280;28042;43.986;22.860;2023-04-21T09:16:01;100725.16;;;17.99;54.75
42385;BME280;28042;43.986;22.860;2023-04-21T09:18:28;100725.94;;;17.83;54.96
42385;BME280;28042;43.986;22.860;2023-04-21T09:21:15;100701.88;;;17.95;54.46
42385;BME280;28042;43.986;22.860;2023-04-21T09:23:43;100708.97;;;18.19;53.03
42385;BME280;28042;43.986;22.860;2023-04-21T09:26:09;100754.19;;;18.75;52.83
42385;BME280;28042;43.986;22.860;2023-04-21T09:28:35;100750.63;;;18.63;53.47
42385;BME280;28042;43.986;22.860;2023-04-21T09:31:00;100758.41;;;18.95;53.12
42385;BME280;28042;43.986;22.860;2023-04-21T09:33:25;100750.94;;;19.12;52.53
42385;BME280;28042;43.986;22.860;2023-04-21T09:35:51;100748.78;;;19.19;52.07
42385;BME280;28042;43.986;22.860;2023-04-21T09:38:20;100750.84;;;19.45;47.16
42385;BME280;28042;43.986;22.860;2023-04-21T09:40:55;100732.97;;;19.53;48.04
42385;BME280;28042;43.986;22.860;2023-04-21T09:43:21;100748.44;;;19.71;48.17
42385;BME280;28042;43.986;22.860;2023-04-21T09:45:47;100690.34;;;19.54;47.13
42385;BME280;28042;43.986;22.860;2023-04-21T09:48:16;100733.59;;;19.99;48.85
42385;BME280;28042;43.986;22.860;2023-04-21T09:50:42;100738.22;;;19.71;48.93
42385;BME280;28042;43.986;22.860;2023-04-21T09:53:14;100739.16;;;19.38;50.40
42385;BME280;28042;43.986;22.860;2023-04-21T09:55:41;100744.81;;;19.48;49.91
42385;BME280;28042;43.986;22.860;2023-04-21T09:58:08;100737.41;;;19.54;49.70
42385;BME280;28042;43.986;22.860;2023-04-21T10:00:37;100743.88;;;19.60;49.09
42385;BME280;28042;43.986;22.860;2023-04-21T10:03:04;100738.47;;;19.92;48.12
42385;BME280;28042;43.986;22.860;2023-04-21T10:05:35;100718.13;;;19.59;48.77
42385;BME280;28042;43.986;22.860;2023-04-21T10:08:01;100735.97;;;19.90;48.75
42385;BME280;28042;43.986;22.860;2023-04-21T10:10:28;100720.31;;;19.79;48.67
42385;BME280;28042;43.986;22.860;2023-04-21T10:12:59;100738.25;;;19.55;48.97
42385;BME280;28042;43.986;22.860;2023-04-21T10:15:37;100729.16;;;19.76;47.43
42385;BME280;28042;43.986;22.860;2023-04-21T10:18:20;100678.56;;;19.59;47.71
42385;BME280;28042;43.986;22.860;2023-04-21T10:20:56;100732.84;;;20.09;46.42
42385;BME280;28042;43.986;22.860;2023-04-21T10:25:51;100674.69;;;20.09;46.49
42385;BME280;28042;43.986;22.860;2023-04-21T10:28:19;100686.72;;;20.46;46.31
42385;BME280;28042;43.986;22.860;2023-04-21T10:30:45;100711.94;;;20.77;46.20
42385;BME280;28042;43.986;22.860;2023-04-21T10:33:10;100717.06;;;21.00;45.33
42385;BME280;28042;43.986;22.860;2023-04-21T10:36:00;100718.16;;;21.31;45.28
42385;BME280;28042;43.986;22.860;2023-04-21T10:38:40;100715.66;;;21.30;44.55
42385;BME280;28042;43.986;22.860;2023-04-21T10:41:25;100717.53;;;21.77;42.47
42385;BME280;28042;43.986;22.860;2023-04-21T10:43:51;100660.50;;;21.01;43.17
42385;BME280;28042;43.986;22.860;2023-04-21T10:46:37;100668.81;;;21.01;44.91
42385;BME280;28042;43.986;22.860;2023-04-21T10:49:24;100710.53;;;21.16;44.50
42385;BME280;28042;43.986;22.860;2023-04-21T10:52:10;100704.25;;;20.89;45.83
42385;BME280;28042;43.986;22.860;2023-04-21T10:55:03;100709.38;;;21.50;44.46
42385;BME280;28042;43.986;22.860;2023-04-21T10:57:33;100703.72;;;21.29;43.78
42385;BME280;28042;43.986;22.860;2023-04-21T10:59:59;100701.03;;;21.07;44.04
42385;BME280;28042;43.986;22.860;2023-04-21T11:02:25;100663.28;;;20.59;44.64
42385;BME280;28042;43.986;22.860;2023-04-21T11:04:54;100666.56;;;20.56;44.08
42385;BME280;28042;43.986;22.860;2023-04-21T11:07:23;100668.84;;;20.64;43.66
42385;BME280;28042;43.986;22.860;2023-04-21T11:09:59;100697.53;;;21.22;44.34
42385;BME280;28042;43.986;22.860;2023-04-21T11:12:29;100690.94;;;20.91;43.28
42385;BME280;28042;43.986;22.860;2023-04-21T11:14:56;100692.06;;;20.58;45.78
42385;BME280;28042;43.986;22.860;2023-04-21T11:17:22;100701.97;;;20.22;45.50
42385;BME280;28042;43.986;22.860;2023-04-21T11:19:54;100664.69;;;19.37;46.03
42385;BME280;28042;43.986;22.860;2023-04-21T11:22:22;100703.69;;;20.01;47.29
42385;BME280;28042;43.986;22.860;2023-04-21T11:24:51;100660.63;;;20.15;45.91
42385;BME280;28042;43.986;22.860;2023-04-21T11:27:17;100708.06;;;20.78;46.72
42385;BME280;28042;43.986;22.860;2023-04-21T11:29:44;100693.81;;;21.06;44.88
42385;BME280;28042;43.986;22.860;2023-04-21T11:32:11;100684.41;;;21.07;45.04
42385;BME280;28042;43.986;22.860;2023-04-21T11:34:37;100708.44;;;21.34;45.06
42385;BME280;28042;43.986;22.860;2023-04-21T11:37:03;100682.72;;;21.06;44.35
42385;BME280;28042;43.986;22.860;2023-04-21T11:39:31;100699.44;;;21.16;44.78
42385;BME280;28042;43.986;22.860;2023-04-21T11:41:56;100639.41;;;21.00;44.61
42385;BME280;28042;43.986;22.860;2023-04-21T11:46:56;100654.50;;;20.72;44.68
42385;BME280;28042;43.986;22.860;2023-04-21T11:49:24;100702.69;;;21.03;44.40
42385;BME280;28042;43.986;22.860;2023-04-21T11:51:53;100648.81;;;20.52;44.90
42385;BME280;28042;43.986;22.860;2023-04-21T11:54:19;100649.81;;;20.14;44.91
42385;BME280;28042;43.986;22.860;2023-04-21T11:56:48;100692.59;;;20.55;45.41
42385;BME280;28042;43.986;22.860;2023-04-21T11:59:21;100669.38;;;20.61;45.04
42385;BME280;28042;43.986;22.860;2023-04-21T12:01:52;100677.41;;;21.00;44.02
42385;BME280;28042;43.986;22.860;2023-04-21T12:04:21;100692.44;;;21.46;44.91
42385;BME280;28042;43.986;22.860;2023-04-21T12:06:55;100680.31;;;21.72;43.65
42385;BME280;28042;43.986;22.860;2023-04-21T12:09:21;100664.75;;;21.77;42.40
42385;BME280;28042;43.986;22.860;2023-04-21T12:11:48;100648.84;;;21.47;42.61
42385;BME280;28042;43.986;22.860;2023-04-21T12:14:15;100670.75;;;21.43;43.37
42385;BME280;28042;43.986;22.860;2023-04-21T12:16:42;100651.03;;;21.39;44.21
42385;BME280;28042;43.986;22.860;2023-04-21T12:19:07;100677.56;;;21.88;43.01
42385;BME280;28042;43.986;22.860;2023-04-21T12:21:36;100679.16;;;21.58;42.84
42385;BME280;28042;43.986;22.860;2023-04-21T12:24:03;100676.72;;;21.77;41.35
42385;BME280;28042;43.986;22.860;2023-04-21T12:26:29;100632.31;;;21.97;41.95
42385;BME280;28042;43.986;22.860;2023-04-21T12:28:54;100665.19;;;22.41;41.48
42385;BME280;28042;43.986;22.860;2023-04-21T12:31:20;100651.25;;;22.67;41.56
42385;BME280;28042;43.986;22.860;2023-04-21T12:33:46;100649.88;;;22.08;41.69
42385;BME280;28042;43.986;22.860;2023-04-21T12:36:11;100614.88;;;22.27;40.93
42385;BME280;28042;43.986;22.860;2023-04-21T12:41:02;100650.94;;;23.09;40.06
42385;BME280;28042;43.986;22.860;2023-04-21T12:43:28;100642.06;;;22.81;40.17
42385;BME280;28042;43.986;22.860;2023-04-21T12:45:53;100602.06;;;22.57;40.44